createdAt,value
2019-04-27T00:00:03.826Z,0
2019-04-27T00:00:55.884Z,0
2019-04-27T00:01:55.991Z,0
2019-04-27T00:03:05.967Z,0
2019-04-27T00:03:54.042Z,0
2019-04-27T00:05:00.253Z,0
2019-04-27T00:05:55.919Z,0
2019-04-27T00:06:53.793Z,0
2019-04-27T00:08:00.696Z,0
2019-04-27T00:08:55.651Z,0
2019-04-27T00:09:57.885Z,0
2019-04-27T00:10:59.690Z,0
2019-04-27T00:11:55.627Z,0
2019-04-27T00:12:57.140Z,0
2019-04-27T00:13:53.734Z,0
2019-04-27T00:14:59.382Z,0
2019-04-27T00:15:53.854Z,0
2019-04-27T00:16:58.177Z,0
2019-04-27T00:18:01.237Z,0
2019-04-27T00:19:00.984Z,0
2019-04-27T00:19:55.626Z,0
2019-04-27T00:20:55.938Z,0
2019-04-27T00:21:55.312Z,0
2019-04-27T00:22:55.628Z,0
2019-04-27T00:23:55.609Z,0
2019-04-27T00:24:55.595Z,0
2019-04-27T00:25:55.223Z,0
2019-04-27T00:26:54.029Z,0
2019-04-27T00:27:53.580Z,0
2019-04-27T00:28:53.898Z,0
2019-04-27T00:29:55.924Z,0
2019-04-27T00:30:55.436Z,0
2019-04-27T00:31:55.666Z,0
2019-04-27T00:32:53.771Z,0
2019-04-27T00:33:55.661Z,0
2019-04-27T00:34:55.376Z,0
2019-04-27T00:35:53.862Z,0
2019-04-27T00:36:53.768Z,0
2019-04-27T00:37:55.191Z,0
2019-04-27T00:38:55.586Z,0
2019-04-27T00:39:53.457Z,0
2019-04-27T00:40:53.781Z,0
2019-04-27T00:41:55.497Z,0
2019-04-27T00:42:54.132Z,0
2019-04-27T00:43:53.445Z,0
2019-04-27T00:44:54.220Z,0
2019-04-27T00:45:53.752Z,0
2019-04-27T00:46:53.431Z,0
2019-04-27T00:48:05.946Z,0
2019-04-27T00:48:53.651Z,0
2019-04-27T00:49:57.191Z,0
2019-04-27T00:50:55.260Z,0
2019-04-27T00:51:53.723Z,0
2019-04-27T00:52:55.277Z,0
2019-04-27T00:53:55.066Z,0
2019-04-27T00:54:53.882Z,0
2019-04-27T00:55:53.850Z,0
2019-04-27T00:56:55.376Z,0
2019-04-27T00:57:53.705Z,0
2019-04-27T00:58:55.948Z,0
2019-04-27T00:59:55.379Z,0
2019-04-27T01:00:54.018Z,0
2019-04-27T01:01:53.587Z,0
2019-04-27T01:02:53.927Z,0
2019-04-27T01:03:55.674Z,0
2019-04-27T01:04:55.062Z,0
2019-04-27T01:05:53.571Z,0
2019-04-27T01:06:53.949Z,0
2019-04-27T01:07:53.813Z,0
2019-04-27T01:08:53.368Z,0
2019-04-27T01:09:54.946Z,0
2019-04-27T01:10:53.798Z,0
2019-04-27T01:11:55.786Z,0
2019-04-27T01:12:55.494Z,0
2019-04-27T01:13:53.826Z,0
2019-04-27T01:14:55.802Z,0
2019-04-27T01:15:54.113Z,0
2019-04-27T01:16:54.032Z,0
2019-04-27T01:17:53.623Z,0
2019-04-27T01:18:53.270Z,0
2019-04-27T01:19:53.705Z,0
2019-04-27T01:20:53.456Z,0
2019-04-27T01:21:54.474Z,0
2019-04-27T01:22:53.554Z,0
2019-04-27T01:23:53.713Z,0
2019-04-27T01:24:54.016Z,0
2019-04-27T01:25:55.873Z,0
2019-04-27T01:26:54.774Z,0
2019-04-27T01:27:54.193Z,0
2019-04-27T01:28:53.553Z,0
2019-04-27T01:29:54.791Z,0
2019-04-27T01:30:53.789Z,0
2019-04-27T01:31:53.690Z,0
2019-04-27T01:32:54.147Z,0
2019-04-27T01:33:53.717Z,0
2019-04-27T01:34:53.937Z,0
2019-04-27T01:35:53.954Z,0
2019-04-27T01:36:53.846Z,0
2019-04-27T01:37:53.649Z,0
2019-04-27T01:38:54.220Z,0
2019-04-27T01:39:54.944Z,0
2019-04-27T01:40:54.351Z,0
2019-04-27T01:41:53.716Z,0
2019-04-27T01:42:53.606Z,0
2019-04-27T01:43:53.443Z,0
2019-04-27T01:44:55.757Z,0
2019-04-27T01:45:53.627Z,0
2019-04-27T01:46:53.281Z,0
2019-04-27T01:47:54.038Z,0
2019-04-27T01:48:53.852Z,0
2019-04-27T01:49:54.342Z,0
2019-04-27T01:50:53.784Z,0
2019-04-27T01:51:53.850Z,0
2019-04-27T01:52:53.548Z,0
2019-04-27T01:53:54.025Z,0
2019-04-27T01:54:54.370Z,0
2019-04-27T01:55:53.997Z,0
2019-04-27T01:56:53.839Z,0
2019-04-27T01:57:53.580Z,0
2019-04-27T01:58:54.226Z,0
2019-04-27T01:59:53.558Z,0
2019-04-27T02:00:53.947Z,0
2019-04-27T02:01:53.764Z,0
2019-04-27T02:02:53.997Z,0
2019-04-27T02:03:53.695Z,0
2019-04-27T02:04:54.158Z,0
2019-04-27T02:05:53.827Z,0
2019-04-27T02:06:53.541Z,0
2019-04-27T02:07:53.912Z,0
2019-04-27T02:08:54.091Z,0
2019-04-27T02:09:53.021Z,0
2019-04-27T02:10:54.367Z,0
2019-04-27T02:11:53.793Z,0
2019-04-27T02:12:53.546Z,0
2019-04-27T02:13:53.860Z,0
2019-04-27T02:14:53.910Z,0
2019-04-27T02:15:53.545Z,0
2019-04-27T02:16:53.858Z,0
2019-04-27T02:17:55.530Z,0
2019-04-27T02:18:53.423Z,0
2019-04-27T02:19:54.001Z,0
2019-04-27T02:20:53.821Z,0
2019-04-27T02:21:56.034Z,0
2019-04-27T02:22:53.357Z,0
2019-04-27T02:23:54.010Z,0
2019-04-27T02:24:53.848Z,0
2019-04-27T02:25:54.217Z,0
2019-04-27T02:26:54.534Z,0
2019-04-27T02:27:53.862Z,0
2019-04-27T02:28:54.099Z,0
2019-04-27T02:29:53.912Z,0
2019-04-27T02:30:54.407Z,0
2019-04-27T02:31:54.893Z,0
2019-04-27T02:32:54.455Z,0
2019-04-27T02:33:54.872Z,0
2019-04-27T02:34:55.100Z,0
2019-04-27T02:35:55.438Z,0
2019-04-27T02:36:54.862Z,0
2019-04-27T02:37:54.816Z,0
2019-04-27T02:38:54.064Z,0
2019-04-27T02:39:54.643Z,0
2019-04-27T02:40:54.524Z,0
2019-04-27T02:41:56.421Z,0
2019-04-27T02:42:57.346Z,0
2019-04-27T02:43:54.378Z,0
2019-04-27T02:44:54.109Z,0
2019-04-27T02:45:54.912Z,0
2019-04-27T02:46:55.027Z,0
2019-04-27T02:47:54.419Z,0
2019-04-27T02:49:13.020Z,0
2019-04-27T02:49:55.174Z,0
2019-04-27T02:50:54.599Z,0
2019-04-27T02:51:54.457Z,0
2019-04-27T02:52:54.964Z,0
2019-04-27T02:53:54.365Z,0
2019-04-27T02:54:54.910Z,0
2019-04-27T02:55:54.560Z,0
2019-04-27T02:56:59.124Z,0
2019-04-27T02:57:54.404Z,0
2019-04-27T02:58:54.514Z,0
2019-04-27T02:59:55.012Z,0
2019-04-27T03:00:54.760Z,0
2019-04-27T03:02:00.483Z,0
2019-04-27T03:02:55.756Z,0
2019-04-27T03:03:55.131Z,0
2019-04-27T03:04:54.768Z,0
2019-04-27T03:05:55.197Z,0
2019-04-27T03:06:54.394Z,0
2019-04-27T03:07:54.749Z,0
2019-04-27T03:09:02.716Z,0
2019-04-27T03:09:55.711Z,0
2019-04-27T03:10:54.994Z,0
2019-04-27T03:11:54.831Z,0
2019-04-27T03:12:54.828Z,0
2019-04-27T03:13:56.271Z,0
2019-04-27T03:14:55.427Z,0
2019-04-27T03:15:54.254Z,0
2019-04-27T03:16:54.208Z,0
2019-04-27T03:17:54.293Z,0
2019-04-27T03:19:17.922Z,0
2019-04-27T03:19:56.776Z,0
2019-04-27T03:20:54.970Z,0
2019-04-27T03:21:54.371Z,0
2019-04-27T03:22:54.721Z,0
2019-04-27T03:23:54.741Z,0
2019-04-27T03:24:54.659Z,0
2019-04-27T03:25:55.159Z,0
2019-04-27T03:26:54.692Z,0
2019-04-27T03:27:55.077Z,0
2019-04-27T03:28:55.109Z,0
2019-04-27T03:29:54.483Z,0
2019-04-27T03:30:56.827Z,0
2019-04-27T03:32:01.845Z,0
2019-04-27T03:33:05.391Z,0
2019-04-27T03:34:11.798Z,0
2019-04-27T03:34:56.791Z,0
2019-04-27T03:35:57.228Z,4
2019-04-27T03:36:55.936Z,4
2019-04-27T03:37:54.995Z,4
2019-04-27T03:38:54.401Z,0
2019-04-27T03:39:54.483Z,4
2019-04-27T03:40:57.451Z,4
2019-04-27T03:41:59.733Z,4
2019-04-27T03:42:54.418Z,4
2019-04-27T03:43:55.150Z,8
2019-04-27T03:44:55.117Z,4
2019-04-27T03:45:56.765Z,8
2019-04-27T03:46:54.203Z,8
2019-04-27T03:47:54.893Z,12
2019-04-27T03:48:54.357Z,16
2019-04-27T03:49:55.363Z,16
2019-04-27T03:50:55.406Z,16
2019-04-27T03:51:54.685Z,20
2019-04-27T03:52:54.536Z,28
2019-04-27T03:53:57.184Z,32
2019-04-27T03:54:55.243Z,36
2019-04-27T03:55:55.039Z,40
2019-04-27T03:56:55.273Z,44
2019-04-27T03:57:54.389Z,56
2019-04-27T03:58:54.329Z,60
2019-04-27T03:59:55.121Z,72
2019-04-27T04:00:54.766Z,80
2019-04-27T04:01:55.341Z,92
2019-04-27T04:02:54.777Z,104
2019-04-27T04:03:54.720Z,116
2019-04-27T04:04:55.210Z,128
2019-04-27T04:05:54.578Z,144
2019-04-27T04:06:53.813Z,160
2019-04-27T04:07:54.872Z,172
2019-04-27T04:08:59.859Z,192
2019-04-27T04:09:55.003Z,208
2019-04-27T04:10:54.401Z,228
2019-04-27T04:11:53.960Z,244
2019-04-27T04:13:01.097Z,272
2019-04-27T04:13:54.084Z,292
2019-04-27T04:14:53.908Z,316
2019-04-27T04:15:54.504Z,336
2019-04-27T04:16:54.601Z,360
2019-04-27T04:17:54.410Z,388
2019-04-27T04:18:54.624Z,412
2019-04-27T04:20:05.331Z,448
2019-04-27T04:20:55.074Z,468
2019-04-27T04:21:55.116Z,500
2019-04-27T04:22:53.967Z,516
2019-04-27T04:23:54.294Z,544
2019-04-27T04:24:53.109Z,576
2019-04-27T04:25:54.605Z,612
2019-04-27T04:26:54.968Z,640
2019-04-27T04:27:55.195Z,676
2019-04-27T04:28:54.765Z,712
2019-04-27T04:29:53.860Z,744
2019-04-27T04:30:54.716Z,784
2019-04-27T04:31:54.954Z,828
2019-04-27T04:32:56.301Z,880
2019-04-27T04:33:54.103Z,932
2019-04-27T04:34:55.024Z,988
2019-04-27T04:35:54.285Z,1052
2019-04-27T04:36:54.937Z,1164
2019-04-27T04:37:59.710Z,1268
2019-04-27T04:38:55.147Z,1512
2019-04-27T04:39:59.606Z,2012
2019-04-27T04:40:52.838Z,2500
2019-04-27T04:41:55.407Z,2724
2019-04-27T04:42:54.749Z,2828
2019-04-27T04:43:53.850Z,2960
2019-04-27T04:44:54.988Z,3176
2019-04-27T04:45:54.728Z,3372
2019-04-27T04:46:54.601Z,3460
2019-04-27T04:47:54.590Z,3708
2019-04-27T04:48:54.848Z,4212
2019-04-27T04:50:15.073Z,4764
2019-04-27T04:50:54.901Z,5024
2019-04-27T04:51:54.821Z,5344
2019-04-27T04:52:54.724Z,5624
2019-04-27T04:53:54.429Z,5888
2019-04-27T04:54:54.449Z,6128
2019-04-27T04:55:53.720Z,6284
2019-04-27T04:56:54.177Z,6420
2019-04-27T04:57:54.233Z,6580
2019-04-27T04:58:53.980Z,6724
2019-04-27T04:59:55.684Z,6848
2019-04-27T05:00:54.396Z,6968
2019-04-27T05:01:54.373Z,7076
2019-04-27T05:02:53.762Z,7200
2019-04-27T05:03:53.649Z,7312
2019-04-27T05:04:54.006Z,7316
2019-04-27T05:05:54.632Z,7372
2019-04-27T05:06:55.333Z,7436
2019-04-27T05:07:53.428Z,7468
2019-04-27T05:08:54.118Z,7264
2019-04-27T05:09:53.149Z,6764
2019-04-27T05:10:54.148Z,6024
2019-04-27T05:11:53.266Z,5340
2019-04-27T05:12:54.517Z,3268
2019-04-27T05:13:54.117Z,3328
2019-04-27T05:14:53.768Z,3424
2019-04-27T05:15:53.260Z,3532
2019-04-27T05:16:53.234Z,4620
2019-04-27T05:17:55.479Z,5216
2019-04-27T05:18:54.289Z,3976
2019-04-27T05:19:53.856Z,6028
2019-04-27T05:20:53.451Z,6540
2019-04-27T05:21:53.648Z,7116
2019-04-27T05:22:53.929Z,7516
2019-04-27T05:23:53.509Z,6628
2019-04-27T05:24:54.071Z,3972
2019-04-27T05:25:53.843Z,3716
2019-04-27T05:26:53.554Z,5612
2019-04-27T05:27:53.819Z,8340
2019-04-27T05:28:53.495Z,6228
2019-04-27T05:29:53.641Z,3828
2019-04-27T05:30:53.555Z,5268
2019-04-27T05:31:53.498Z,6168
2019-04-27T05:32:54.055Z,4748
2019-04-27T05:33:53.537Z,10428
2019-04-27T05:34:54.015Z,4852
2019-04-27T05:35:54.073Z,4616
2019-04-27T05:36:59.269Z,11296
2019-04-27T05:37:53.924Z,11980
2019-04-27T05:38:54.663Z,4796
2019-04-27T05:39:53.512Z,10432
2019-04-27T05:40:54.085Z,9232
2019-04-27T05:41:54.244Z,12720
2019-04-27T05:43:01.232Z,11888
2019-04-27T05:43:53.595Z,5608
2019-04-27T05:44:53.533Z,5404
2019-04-27T05:45:57.610Z,11248
2019-04-27T05:46:53.372Z,6236
2019-04-27T05:47:58.916Z,9220
2019-04-27T05:48:53.402Z,12372
2019-04-27T05:49:53.077Z,15040
2019-04-27T05:51:04.408Z,11988
2019-04-27T05:51:55.089Z,11756
2019-04-27T05:52:54.147Z,15424
2019-04-27T05:53:51.774Z,9972
2019-04-27T05:54:53.665Z,7736
2019-04-27T05:55:53.684Z,7664
2019-04-27T05:56:53.966Z,16544
2019-04-27T05:57:53.512Z,9548
2019-04-27T05:58:55.823Z,16192
2019-04-27T05:59:52.033Z,12944
2019-04-27T06:00:54.277Z,10592
2019-04-27T06:01:53.786Z,15552
2019-04-27T06:02:53.535Z,8104
2019-04-27T06:03:52.268Z,9536
2019-04-27T06:04:54.375Z,8212
2019-04-27T06:05:53.236Z,14204
2019-04-27T06:06:52.426Z,16928
2019-04-27T06:07:53.092Z,16160
2019-04-27T06:08:54.193Z,15904
2019-04-27T06:09:54.015Z,13856
2019-04-27T06:10:53.649Z,12084
2019-04-27T06:11:54.685Z,15968
2019-04-27T06:12:53.406Z,16512
2019-04-27T06:13:54.036Z,16544
2019-04-27T06:14:54.082Z,8700
2019-04-27T06:15:52.433Z,16160
2019-04-27T06:16:55.320Z,14676
2019-04-27T06:17:53.233Z,11460
2019-04-27T06:18:54.044Z,9608
2019-04-27T06:19:53.779Z,13340
2019-04-27T06:21:02.275Z,12424
2019-04-27T06:21:52.475Z,12544
2019-04-27T06:22:53.509Z,12892
2019-04-27T06:23:53.123Z,12164
2019-04-27T06:24:59.985Z,14260
2019-04-27T06:25:53.788Z,14248
2019-04-27T06:26:54.498Z,12324
2019-04-27T06:27:54.272Z,14352
2019-04-27T06:28:52.923Z,15648
2019-04-27T06:29:53.614Z,14076
2019-04-27T06:30:54.024Z,13400
2019-04-27T06:31:54.342Z,10936
2019-04-27T06:32:52.105Z,12464
2019-04-27T06:33:54.459Z,13692
2019-04-27T06:34:53.703Z,13048
2019-04-27T06:35:54.048Z,12288
2019-04-27T06:36:53.235Z,12540
2019-04-27T06:37:54.089Z,14756
2019-04-27T06:38:53.353Z,13304
2019-04-27T06:39:54.204Z,15136
2019-04-27T06:40:53.287Z,15292
2019-04-27T06:41:53.551Z,14848
2019-04-27T06:42:53.454Z,15232
2019-04-27T06:43:54.214Z,15936
2019-04-27T06:44:53.934Z,10136
2019-04-27T06:45:53.376Z,13284
2019-04-27T06:46:53.564Z,13844
2019-04-27T06:47:53.913Z,13704
2019-04-27T06:48:54.291Z,13520
2019-04-27T06:49:52.185Z,15060
2019-04-27T06:51:05.850Z,14892
2019-04-27T06:51:54.304Z,12368
2019-04-27T06:52:53.352Z,13372
2019-04-27T06:53:53.890Z,14856
2019-04-27T06:54:53.129Z,13020
2019-04-27T06:55:54.535Z,10260
2019-04-27T06:56:53.382Z,11792
2019-04-27T06:57:53.917Z,12048
2019-04-27T06:58:53.955Z,10784
2019-04-27T06:59:53.461Z,11204
2019-04-27T07:00:52.173Z,11656
2019-04-27T07:01:53.690Z,12464
2019-04-27T07:02:55.300Z,12864
2019-04-27T07:03:53.217Z,13124
2019-04-27T07:04:53.349Z,12612
2019-04-27T07:05:53.017Z,13512
2019-04-27T07:07:05.761Z,13148
2019-04-27T07:07:53.761Z,13200
2019-04-27T07:08:55.259Z,13160
2019-04-27T07:09:54.106Z,12512
2019-04-27T07:10:53.936Z,12804
2019-04-27T07:11:54.123Z,12368
2019-04-27T07:12:53.702Z,12896
2019-04-27T07:13:52.283Z,13328
2019-04-27T07:15:03.687Z,14172
2019-04-27T07:15:52.855Z,14440
2019-04-27T07:16:53.123Z,13532
2019-04-27T07:17:53.581Z,14688
2019-04-27T07:18:52.866Z,15172
2019-04-27T07:19:54.190Z,15044
2019-04-27T07:20:53.069Z,14916
2019-04-27T07:21:54.502Z,13872
2019-04-27T07:22:54.125Z,14576
2019-04-27T07:23:53.607Z,14428
2019-04-27T07:24:53.667Z,14356
2019-04-27T07:25:53.589Z,14384
2019-04-27T07:26:53.651Z,14040
2019-04-27T07:27:53.966Z,15152
2019-04-27T07:28:54.157Z,15344
2019-04-27T07:29:56.158Z,14892
2019-04-27T07:30:53.570Z,14424
2019-04-27T07:31:54.202Z,13544
2019-04-27T07:32:53.141Z,13084
2019-04-27T07:33:53.915Z,13044
2019-04-27T07:34:55.203Z,12712
2019-04-27T07:35:54.626Z,12516
2019-04-27T07:36:53.744Z,12348
2019-04-27T07:37:53.684Z,12056
2019-04-27T07:38:54.808Z,11868
2019-04-27T07:39:54.067Z,11912
2019-04-27T07:40:53.779Z,11672
2019-04-27T07:41:53.628Z,11872
2019-04-27T07:42:54.170Z,11760
2019-04-27T07:43:54.176Z,11656
2019-04-27T07:44:52.519Z,11648
2019-04-27T07:45:54.224Z,11736
2019-04-27T07:46:52.136Z,11552
2019-04-27T07:47:54.128Z,11104
2019-04-27T07:48:54.305Z,10676
2019-04-27T07:49:54.005Z,10376
2019-04-27T07:50:53.204Z,10348
2019-04-27T07:51:53.523Z,10556
2019-04-27T07:52:53.224Z,10504
2019-04-27T07:53:53.460Z,10192
2019-04-27T07:54:53.869Z,9364
2019-04-27T07:55:53.732Z,9892
2019-04-27T07:56:53.407Z,9928
2019-04-27T07:57:54.012Z,10052
2019-04-27T07:58:54.244Z,10224
2019-04-27T07:59:54.576Z,10688
2019-04-27T08:00:55.687Z,10984
2019-04-27T08:01:53.753Z,10576
2019-04-27T08:02:53.215Z,9884
2019-04-27T08:03:53.600Z,9672
2019-04-27T08:04:55.580Z,9556
2019-04-27T08:05:53.463Z,9508
2019-04-27T08:06:53.902Z,9444
2019-04-27T08:07:53.684Z,9420
2019-04-27T08:08:53.513Z,9496
2019-04-27T08:09:54.277Z,9632
2019-04-27T08:10:54.784Z,9876
2019-04-27T08:11:53.639Z,10156
2019-04-27T08:12:54.271Z,10416
2019-04-27T08:13:53.604Z,10764
2019-04-27T08:14:53.723Z,10776
2019-04-27T08:15:54.128Z,10980
2019-04-27T08:16:53.471Z,11032
2019-04-27T08:17:54.159Z,11116
2019-04-27T08:18:56.024Z,11228
2019-04-27T08:19:54.245Z,11348
2019-04-27T08:20:53.683Z,11544
2019-04-27T08:21:54.546Z,13136
2019-04-27T08:22:54.391Z,12456
2019-04-27T08:23:53.827Z,12076
2019-04-27T08:24:54.500Z,12220
2019-04-27T08:25:53.802Z,12312
2019-04-27T08:26:56.375Z,12184
2019-04-27T08:27:53.613Z,12060
2019-04-27T08:28:53.176Z,11932
2019-04-27T08:29:53.360Z,11952
2019-04-27T08:30:53.717Z,12060
2019-04-27T08:31:53.420Z,12152
2019-04-27T08:32:54.290Z,12256
2019-04-27T08:33:53.236Z,12396
2019-04-27T08:34:54.457Z,12484
2019-04-27T08:35:53.651Z,12416
2019-04-27T08:36:54.663Z,12068
2019-04-27T08:37:53.972Z,11988
2019-04-27T08:38:53.468Z,11980
2019-04-27T08:39:55.717Z,12016
2019-04-27T08:40:54.230Z,12724
2019-04-27T08:41:54.275Z,12112
2019-04-27T08:42:59.161Z,11180
2019-04-27T08:43:53.398Z,10712
2019-04-27T08:44:54.143Z,10028
2019-04-27T08:45:53.354Z,9152
2019-04-27T08:46:54.297Z,8300
2019-04-27T08:47:54.085Z,7664
2019-04-27T08:48:53.344Z,7308
2019-04-27T08:49:53.760Z,7084
2019-04-27T08:50:53.225Z,6856
2019-04-27T08:52:06.322Z,6112
2019-04-27T08:52:54.349Z,5528
2019-04-27T08:53:52.742Z,4912
2019-04-27T08:54:54.061Z,4536
2019-04-27T08:55:55.290Z,4408
2019-04-27T08:56:53.998Z,4492
2019-04-27T08:57:53.755Z,4820
2019-04-27T08:58:54.239Z,5260
2019-04-27T08:59:54.091Z,5556
2019-04-27T09:00:53.667Z,5696
2019-04-27T09:01:53.786Z,5728
2019-04-27T09:02:55.226Z,5704
2019-04-27T09:03:54.037Z,5688
2019-04-27T09:04:54.293Z,5596
2019-04-27T09:05:53.851Z,5584
2019-04-27T09:06:53.954Z,5616
2019-04-27T09:07:54.194Z,5612
2019-04-27T09:08:54.398Z,5776
2019-04-27T09:09:54.531Z,6044
2019-04-27T09:10:53.495Z,6160
2019-04-27T09:11:54.177Z,6104
2019-04-27T09:12:56.096Z,5824
2019-04-27T09:13:53.109Z,5424
2019-04-27T09:14:54.170Z,4940
2019-04-27T09:15:54.179Z,4560
2019-04-27T09:17:09.392Z,4656
2019-04-27T09:17:53.610Z,4828
2019-04-27T09:18:54.668Z,5124
2019-04-27T09:19:53.717Z,5360
2019-04-27T09:20:53.908Z,5664
2019-04-27T09:21:53.366Z,5892
2019-04-27T09:22:54.125Z,6080
2019-04-27T09:23:53.687Z,6332
2019-04-27T09:24:54.017Z,6604
2019-04-27T09:25:54.187Z,6980
2019-04-27T09:26:53.516Z,7408
2019-04-27T09:27:53.616Z,7792
2019-04-27T09:28:54.115Z,8044
2019-04-27T09:29:54.426Z,8240
2019-04-27T09:30:54.310Z,8228
2019-04-27T09:31:53.611Z,8068
2019-04-27T09:32:52.471Z,7880
2019-04-27T09:33:52.467Z,7712
2019-04-27T09:34:53.178Z,7652
2019-04-27T09:35:53.096Z,7760
2019-04-27T09:36:53.057Z,7920
2019-04-27T09:37:52.587Z,7908
2019-04-27T09:38:53.233Z,7740
2019-04-27T09:39:53.296Z,7456
2019-04-27T09:40:53.755Z,7088
2019-04-27T09:41:53.285Z,6728
2019-04-27T09:42:53.586Z,6448
2019-04-27T09:43:53.550Z,6296
2019-04-27T09:44:55.805Z,6296
2019-04-27T09:45:55.547Z,6228
2019-04-27T09:46:56.029Z,6200
2019-04-27T09:47:53.824Z,6092
2019-04-27T09:48:53.631Z,5868
2019-04-27T09:49:53.129Z,5448
2019-04-27T09:50:55.712Z,5196
2019-04-27T09:51:53.188Z,4936
2019-04-27T09:52:53.146Z,4508
2019-04-27T09:53:53.062Z,3968
2019-04-27T09:54:53.025Z,3480
2019-04-27T09:55:53.565Z,3364
2019-04-27T09:56:53.937Z,3444
2019-04-27T09:57:53.206Z,3508
2019-04-27T09:58:55.820Z,3420
2019-04-27T09:59:52.984Z,3484
2019-04-27T10:00:52.711Z,3720
2019-04-27T10:01:53.676Z,3760
2019-04-27T10:02:53.250Z,3880
2019-04-27T10:03:53.311Z,4440
2019-04-27T10:04:52.899Z,5472
2019-04-27T10:05:52.670Z,6284
2019-04-27T10:06:56.954Z,6872
2019-04-27T10:07:54.037Z,7864
2019-04-27T10:08:52.419Z,9184
2019-04-27T10:09:55.815Z,10428
2019-04-27T10:10:56.465Z,11236
2019-04-27T10:11:52.166Z,11660
2019-04-27T10:12:53.588Z,11412
2019-04-27T10:13:55.428Z,11172
2019-04-27T10:14:55.792Z,11036
2019-04-27T10:15:52.438Z,10640
2019-04-27T10:16:53.616Z,9392
2019-04-27T10:17:52.425Z,7868
2019-04-27T10:18:52.802Z,6600
2019-04-27T10:19:53.107Z,5860
2019-04-27T10:21:08.740Z,5400
2019-04-27T10:21:53.945Z,4968
2019-04-27T10:22:53.581Z,4256
2019-04-27T10:23:54.209Z,3756
2019-04-27T10:24:51.941Z,3556
2019-04-27T10:25:52.983Z,3484
2019-04-27T10:26:52.426Z,3584
2019-04-27T10:27:52.751Z,4080
2019-04-27T10:28:52.805Z,4948
2019-04-27T10:29:53.776Z,6296
2019-04-27T10:30:52.752Z,7632
2019-04-27T10:31:56.322Z,8860
2019-04-27T10:32:53.103Z,9764
2019-04-27T10:33:52.853Z,10684
2019-04-27T10:34:52.418Z,11364
2019-04-27T10:35:56.198Z,11540
2019-04-27T10:36:52.780Z,11520
2019-04-27T10:37:52.483Z,11364
2019-04-27T10:38:53.130Z,11048
2019-04-27T10:39:52.752Z,10760
2019-04-27T10:40:52.163Z,10608
2019-04-27T10:41:53.525Z,10540
2019-04-27T10:42:53.110Z,10508
2019-04-27T10:43:52.159Z,10768
2019-04-27T10:44:52.880Z,10980
2019-04-27T10:45:53.497Z,11008
2019-04-27T10:46:52.425Z,10848
2019-04-27T10:47:56.089Z,10888
2019-04-27T10:48:52.636Z,10960
2019-04-27T10:49:56.653Z,10932
2019-04-27T10:50:53.654Z,10356
2019-04-27T10:51:52.774Z,9912
2019-04-27T10:53:03.544Z,8864
2019-04-27T10:53:52.684Z,7980
2019-04-27T10:54:55.571Z,6732
2019-04-27T10:55:53.358Z,6172
2019-04-27T10:56:53.234Z,6048
2019-04-27T10:57:52.451Z,6172
2019-04-27T10:58:52.668Z,6668
2019-04-27T10:59:53.109Z,7164
2019-04-27T11:00:51.886Z,7620
2019-04-27T11:01:53.304Z,7964
2019-04-27T11:02:52.267Z,8280
2019-04-27T11:03:53.476Z,8564
2019-04-27T11:04:53.181Z,8676
2019-04-27T11:05:53.218Z,8612
2019-04-27T11:06:52.385Z,8532
2019-04-27T11:07:52.773Z,8416
2019-04-27T11:08:55.936Z,8312
2019-04-27T11:09:52.167Z,8176
2019-04-27T11:10:53.385Z,7960
2019-04-27T11:11:53.080Z,7704
2019-04-27T11:12:53.113Z,7504
2019-04-27T11:13:53.034Z,7236
2019-04-27T11:14:52.632Z,6988
2019-04-27T11:15:53.364Z,6920
2019-04-27T11:16:52.972Z,7044
2019-04-27T11:17:56.092Z,7240
2019-04-27T11:18:56.120Z,7252
2019-04-27T11:19:52.994Z,7256
2019-04-27T11:20:54.074Z,7128
2019-04-27T11:21:52.404Z,7416
2019-04-27T11:23:00.702Z,7880
2019-04-27T11:23:52.870Z,8240
2019-04-27T11:24:56.343Z,8484
2019-04-27T11:25:53.503Z,8604
2019-04-27T11:26:53.508Z,8664
2019-04-27T11:27:51.896Z,8720
2019-04-27T11:28:53.544Z,8772
2019-04-27T11:29:52.926Z,8784
2019-04-27T11:30:52.616Z,8684
2019-04-27T11:31:53.566Z,8560
2019-04-27T11:32:54.345Z,8484
2019-04-27T11:33:53.144Z,8468
2019-04-27T11:34:52.622Z,8464
2019-04-27T11:35:53.886Z,8504
2019-04-27T11:36:52.804Z,8612
2019-04-27T11:37:52.387Z,8632
2019-04-27T11:38:53.185Z,8560
2019-04-27T11:39:52.768Z,8500
2019-04-27T11:40:53.161Z,8520
2019-04-27T11:41:52.400Z,8448
2019-04-27T11:42:52.146Z,8416
2019-04-27T11:43:53.412Z,8412
2019-04-27T11:44:56.081Z,8156
2019-04-27T11:45:53.026Z,8192
2019-04-27T11:46:55.852Z,8532
2019-04-27T11:47:52.590Z,8216
2019-04-27T11:48:53.503Z,7808
2019-04-27T11:49:52.868Z,7768
2019-04-27T11:50:52.925Z,8020
2019-04-27T11:51:53.568Z,8216
2019-04-27T11:52:52.734Z,8472
2019-04-27T11:53:53.771Z,8940
2019-04-27T11:54:52.740Z,9392
2019-04-27T11:55:52.351Z,9720
2019-04-27T11:56:55.911Z,10116
2019-04-27T11:57:55.796Z,9984
2019-04-27T11:58:56.030Z,9920
2019-04-27T11:59:52.399Z,10116
2019-04-27T12:00:52.345Z,10496
2019-04-27T12:01:52.818Z,10672
2019-04-27T12:02:52.939Z,10500
2019-04-27T12:03:52.071Z,10552
2019-04-27T12:04:53.585Z,10364
2019-04-27T12:05:53.660Z,10092
2019-04-27T12:06:53.442Z,11052
2019-04-27T12:07:56.039Z,14744
2019-04-27T12:08:52.463Z,14232
2019-04-27T12:09:55.134Z,13772
2019-04-27T12:10:55.668Z,13856
2019-04-27T12:11:52.087Z,13828
2019-04-27T12:12:53.525Z,13752
2019-04-27T12:13:52.836Z,13332
2019-04-27T12:14:55.915Z,13040
2019-04-27T12:15:53.421Z,12632
2019-04-27T12:16:53.301Z,12172
2019-04-27T12:17:53.066Z,11788
2019-04-27T12:18:56.332Z,11804
2019-04-27T12:19:53.166Z,11828
2019-04-27T12:20:53.002Z,12068
2019-04-27T12:21:53.329Z,12236
2019-04-27T12:22:52.096Z,11992
2019-04-27T12:23:53.878Z,11836
2019-04-27T12:24:52.734Z,11964
2019-04-27T12:25:53.384Z,12048
2019-04-27T12:26:52.312Z,11800
2019-04-27T12:27:52.758Z,11448
2019-04-27T12:28:52.897Z,11856
2019-04-27T12:29:55.808Z,12476
2019-04-27T12:30:52.574Z,13068
2019-04-27T12:31:56.162Z,12996
2019-04-27T12:32:52.701Z,12540
2019-04-27T12:33:53.233Z,10988
2019-04-27T12:34:53.218Z,8860
2019-04-27T12:35:56.681Z,7948
2019-04-27T12:36:55.577Z,7360
2019-04-27T12:37:52.684Z,7756
2019-04-27T12:38:53.361Z,8452
2019-04-27T12:39:52.568Z,9336
2019-04-27T12:40:53.538Z,10796
2019-04-27T12:41:53.160Z,12576
2019-04-27T12:42:52.575Z,14196
2019-04-27T12:43:53.121Z,14780
2019-04-27T12:44:52.092Z,14808
2019-04-27T12:45:52.948Z,15192
2019-04-27T12:46:52.134Z,15416
2019-04-27T12:47:53.403Z,14240
2019-04-27T12:48:54.570Z,14612
2019-04-27T12:49:52.328Z,12656
2019-04-27T12:50:53.149Z,12196
2019-04-27T12:51:52.622Z,11860
2019-04-27T12:52:53.158Z,11392
2019-04-27T12:53:58.460Z,10752
2019-04-27T12:54:53.386Z,10312
2019-04-27T12:55:53.719Z,10640
2019-04-27T12:56:53.052Z,12692
2019-04-27T12:57:52.124Z,13724
2019-04-27T12:58:52.336Z,13252
2019-04-27T12:59:53.346Z,14560
2019-04-27T13:00:53.230Z,13524
2019-04-27T13:01:53.471Z,13652
2019-04-27T13:02:52.345Z,13168
2019-04-27T13:03:53.432Z,11872
2019-04-27T13:04:53.452Z,11192
2019-04-27T13:05:52.122Z,12044
2019-04-27T13:06:55.817Z,12788
2019-04-27T13:07:52.606Z,13024
2019-04-27T13:08:52.251Z,13028
2019-04-27T13:09:52.835Z,13484
2019-04-27T13:10:52.107Z,12500
2019-04-27T13:11:52.635Z,11684
2019-04-27T13:12:53.299Z,10236
2019-04-27T13:13:51.873Z,9396
2019-04-27T13:14:52.481Z,8820
2019-04-27T13:15:53.101Z,8080
2019-04-27T13:16:53.272Z,8204
2019-04-27T13:17:52.363Z,9108
2019-04-27T13:18:52.361Z,9588
2019-04-27T13:19:52.828Z,10896
2019-04-27T13:20:52.110Z,12560
2019-04-27T13:21:53.726Z,13276
2019-04-27T13:22:52.883Z,11516
2019-04-27T13:24:09.014Z,9572
2019-04-27T13:24:52.838Z,8540
2019-04-27T13:25:52.771Z,7856
2019-04-27T13:26:52.655Z,7424
2019-04-27T13:27:56.660Z,7528
2019-04-27T13:28:53.652Z,6704
2019-04-27T13:29:53.905Z,7136
2019-04-27T13:30:52.610Z,7296
2019-04-27T13:31:52.395Z,8560
2019-04-27T13:32:52.899Z,9620
2019-04-27T13:33:53.489Z,8464